createdAt,value
2018-02-19T00:00:58.329Z,32.57
2018-02-19T00:03:25.841Z,30.47
2018-02-19T00:05:53.387Z,32.07
2018-02-19T00:08:21.664Z,29.20
2018-02-19T00:10:50.065Z,32.70
2018-02-19T00:13:17.594Z,32.40
2018-02-19T00:15:45.121Z,32.43
2018-02-19T00:18:12.783Z,34.07
2018-02-19T00:20:40.296Z,32.33
2018-02-19T00:23:07.823Z,33.13
2018-02-19T00:25:35.463Z,31.73
2018-02-19T00:28:02.980Z,30.67
2018-02-19T00:30:30.500Z,31.90
2018-02-19T00:32:58.054Z,29.67
2018-02-19T00:35:25.586Z,30.77
2018-02-19T00:37:53.890Z,31.77
2018-02-19T00:40:21.422Z,29.67
2018-02-19T00:42:48.946Z,31.33
2018-02-19T00:45:16.459Z,27.87
2018-02-19T00:47:44.765Z,29.80
2018-02-19T00:50:12.288Z,29.57
2018-02-19T00:52:39.842Z,32.33
2018-02-19T00:55:07.396Z,31.97
2018-02-19T00:57:35.691Z,31.37
2018-02-19T01:00:03.219Z,26.20
2018-02-19T01:02:30.766Z,23.77
2018-02-19T01:04:58.270Z,27.40
2018-02-19T01:07:25.800Z,26.57
2018-02-19T01:09:53.460Z,27.07
2018-02-19T01:12:20.968Z,24.93
2018-02-19T01:14:48.480Z,23.53
2018-02-19T01:17:16.013Z,23.13
2018-02-19T01:19:44.289Z,23.60
2018-02-19T01:22:11.813Z,22.07
2018-02-19T01:24:39.357Z,23.57
2018-02-19T01:27:06.865Z,25.00
2018-02-19T01:29:34.378Z,24.20
2018-02-19T01:32:01.913Z,22.53
2018-02-19T01:34:30.189Z,22.77
2018-02-19T01:36:58.469Z,21.67
2018-02-19T01:39:26.933Z,22.43
2018-02-19T01:41:54.485Z,23.03
2018-02-19T01:44:22.002Z,20.57
2018-02-19T01:46:49.533Z,21.73
2018-02-19T01:49:17.040Z,21.37
2018-02-19T01:51:44.557Z,22.13
2018-02-19T01:54:12.086Z,21.57
2018-02-19T01:56:39.590Z,21.57
2018-02-19T01:59:07.101Z,20.43
2018-02-19T02:01:34.628Z,20.73
2018-02-19T02:04:02.921Z,18.63
2018-02-19T02:06:30.452Z,18.80
2018-02-19T02:08:57.980Z,18.57
2018-02-19T02:11:25.493Z,18.67
2018-02-19T02:13:53.762Z,17.33
2018-02-19T02:16:21.304Z,17.40
2018-02-19T02:18:48.839Z,16.97
2018-02-19T02:21:16.382Z,16.00
2018-02-19T02:23:43.939Z,14.83
2018-02-19T02:26:12.216Z,16.37
2018-02-19T02:28:40.818Z,16.53
2018-02-19T02:31:08.382Z,15.43
2018-02-19T02:33:35.908Z,15.37
2018-02-19T02:36:03.417Z,15.87
2018-02-19T02:38:31.063Z,14.50
2018-02-19T02:40:59.364Z,14.43
2018-02-19T02:43:26.903Z,15.20
2018-02-19T02:45:55.203Z,14.17
2018-02-19T02:48:22.749Z,13.57
2018-02-19T02:50:51.033Z,13.87
2018-02-19T02:53:19.331Z,14.00
2018-02-19T02:55:46.862Z,14.37
2018-02-19T02:58:15.151Z,14.93
2018-02-19T03:00:43.448Z,13.97
2018-02-19T03:03:10.961Z,13.77
2018-02-19T03:05:38.494Z,14.87
2018-02-19T03:08:06.022Z,13.57
2018-02-19T03:10:34.301Z,12.17
2018-02-19T03:13:02.599Z,12.70
2018-02-19T03:15:30.120Z,13.20
2018-02-19T03:17:57.629Z,12.77
2018-02-19T03:20:25.174Z,11.33
2018-02-19T03:22:53.444Z,12.50
2018-02-19T03:25:20.976Z,11.83
2018-02-19T03:27:49.285Z,11.73
2018-02-19T03:30:16.801Z,10.67
2018-02-19T03:32:44.308Z,10.80
2018-02-19T03:35:11.843Z,11.00
2018-02-19T03:37:39.356Z,11.23
2018-02-19T03:40:07.629Z,10.23
2018-02-19T03:42:35.929Z,10.43
2018-02-19T03:45:03.438Z,10.43
2018-02-19T03:47:30.950Z,9.50
2018-02-19T03:49:58.499Z,10.80
2018-02-19T03:52:26.781Z,10.07
2018-02-19T03:54:55.072Z,9.93
2018-02-19T03:57:22.594Z,10.80
2018-02-19T03:59:50.099Z,10.07
2018-02-19T04:02:17.658Z,9.43
2018-02-19T04:04:45.179Z,10.77
2018-02-19T04:07:12.687Z,11.03
2018-02-19T04:09:40.977Z,9.50
2018-02-19T04:12:08.484Z,10.23
2018-02-19T04:14:35.996Z,10.77
2018-02-19T04:17:03.546Z,10.47
2018-02-19T04:19:31.834Z,10.80
2018-02-19T04:21:59.351Z,8.97
2018-02-19T04:24:26.989Z,10.33
2018-02-19T04:26:54.493Z,9.50
2018-02-19T04:29:22.001Z,9.27
2018-02-19T04:31:49.545Z,9.23
2018-02-19T04:34:17.814Z,9.03
2018-02-19T04:36:45.327Z,8.53
2018-02-19T04:39:12.864Z,8.77
2018-02-19T04:41:40.372Z,8.57
2018-02-19T04:44:22.808Z,10.10
2018-02-19T04:46:50.809Z,9.37
2018-02-19T04:49:18.320Z,13.40
2018-02-19T04:51:45.861Z,14.13
2018-02-19T04:54:13.376Z,16.13
2018-02-19T04:56:41.658Z,22.20
2018-02-19T05:01:43.790Z,29.23
2018-02-19T05:04:11.344Z,19.87
2018-02-19T05:06:38.866Z,23.33
2018-02-19T05:09:07.145Z,21.70
2018-02-19T05:11:34.689Z,20.23
2018-02-19T05:14:02.203Z,17.47
2018-02-19T05:16:29.727Z,13.33
2018-02-19T05:18:57.272Z,12.23
2018-02-19T05:21:24.801Z,12.93
2018-02-19T05:23:52.304Z,13.23
2018-02-19T05:26:19.847Z,12.50
2018-02-19T05:28:47.371Z,12.43
2018-02-19T05:31:14.891Z,11.83
2018-02-19T05:33:42.519Z,11.67
2018-02-19T05:36:10.047Z,11.90
2018-02-19T05:38:38.334Z,12.17
2018-02-19T05:41:06.642Z,12.27
2018-02-19T05:43:34.169Z,11.63
2018-02-19T05:46:02.459Z,14.00
2018-02-19T05:48:30.775Z,13.30
2018-02-19T05:50:58.296Z,13.77
2018-02-19T05:53:26.573Z,15.03
2018-02-19T05:55:54.120Z,16.17
2018-02-19T05:58:21.688Z,15.90
2018-02-19T06:00:49.206Z,16.80
2018-02-19T06:03:16.771Z,17.23
2018-02-19T06:05:44.350Z,17.10
2018-02-19T06:08:11.867Z,15.87
2018-02-19T06:10:40.177Z,14.27
2018-02-19T06:13:08.464Z,13.87
2018-02-19T06:15:35.985Z,13.73
2018-02-19T06:18:04.290Z,13.07
2018-02-19T06:20:31.812Z,15.17
2018-02-19T06:22:59.323Z,16.13
2018-02-19T06:25:26.876Z,15.13
2018-02-19T06:27:54.391Z,11.93
2018-02-19T06:30:21.914Z,17.10
2018-02-19T06:32:49.438Z,18.00
2018-02-19T06:35:16.957Z,18.63
2018-02-19T06:37:44.477Z,17.37
2018-02-19T06:40:12.783Z,17.63
2018-02-19T06:42:40.288Z,15.87
2018-02-19T06:45:07.806Z,17.87
2018-02-19T06:47:35.368Z,18.93
2018-02-19T06:50:02.891Z,17.30
2018-02-19T06:52:30.405Z,17.77
2018-02-19T06:54:57.984Z,15.07
2018-02-19T06:57:25.510Z,14.77
2018-02-19T06:59:53.802Z,12.00
2018-02-19T07:02:21.343Z,13.23
2018-02-19T07:04:49.650Z,17.77
2018-02-19T07:07:17.188Z,17.33
2018-02-19T07:09:45.523Z,16.90
2018-02-19T07:12:13.061Z,17.17
2018-02-19T07:14:40.567Z,15.80
2018-02-19T07:17:08.125Z,16.33
2018-02-19T07:19:35.674Z,19.60
2018-02-19T07:22:03.188Z,21.53
2018-02-19T07:24:31.513Z,32.97
2018-02-19T07:26:59.038Z,14.47
2018-02-19T07:29:27.390Z,12.80
2018-02-19T07:31:54.955Z,11.37
2018-02-19T07:34:22.479Z,13.23
2018-02-19T07:36:50.047Z,11.67
2018-02-19T07:39:17.612Z,10.93
2018-02-19T07:41:45.157Z,12.30
2018-02-19T07:44:12.747Z,11.93
2018-02-19T07:46:41.063Z,11.40
2018-02-19T07:49:08.586Z,10.23
2018-02-19T07:51:36.142Z,9.23
2018-02-19T07:54:03.705Z,12.33
2018-02-19T07:56:31.229Z,10.30
2018-02-19T07:58:59.538Z,9.57
2018-02-19T08:01:27.117Z,8.87
2018-02-19T08:03:54.638Z,10.53
2018-02-19T08:06:22.935Z,10.00
2018-02-19T08:08:50.515Z,8.53
2018-02-19T08:11:18.070Z,8.50
2018-02-19T08:13:45.578Z,8.70
2018-02-19T08:16:13.131Z,9.43
2018-02-19T08:18:40.659Z,7.67
2018-02-19T08:21:08.205Z,8.87
2018-02-19T08:23:36.511Z,9.10
2018-02-19T08:26:04.067Z,10.57
2018-02-19T08:28:31.627Z,9.70
2018-02-19T08:30:59.218Z,9.30
2018-02-19T08:33:26.781Z,9.20
2018-02-19T08:35:54.302Z,8.57
2018-02-19T08:38:22.602Z,7.33
2018-02-19T08:40:50.183Z,7.43
2018-02-19T08:43:17.730Z,7.30
2018-02-19T08:45:45.283Z,7.77
2018-02-19T08:48:13.593Z,9.20
2018-02-19T08:50:41.174Z,10.03
2018-02-19T08:53:08.700Z,10.27
2018-02-19T08:55:36.235Z,8.40
2018-02-19T08:58:03.763Z,8.17
2018-02-19T09:00:31.314Z,8.80
2018-02-19T09:02:58.825Z,9.10
2018-02-19T09:05:26.369Z,8.83
2018-02-19T09:07:53.894Z,9.77
2018-02-19T09:10:21.434Z,8.77
2018-02-19T09:12:49.023Z,9.30
2018-02-19T09:15:16.595Z,8.93
2018-02-19T09:17:44.131Z,9.30
2018-02-19T09:20:11.671Z,8.80
2018-02-19T09:22:39.205Z,9.27
2018-02-19T09:25:06.720Z,9.60
2018-02-19T09:27:34.235Z,10.90
2018-02-19T09:30:01.799Z,10.17
2018-02-19T09:32:29.316Z,10.47
2018-02-19T09:34:56.834Z,10.10
2018-02-19T09:37:24.461Z,10.47
2018-02-19T09:39:51.992Z,10.50
2018-02-19T09:42:20.298Z,10.00
2018-02-19T09:44:47.824Z,9.93
2018-02-19T09:47:15.347Z,9.17
2018-02-19T09:49:42.871Z,11.20
2018-02-19T09:52:11.260Z,10.23
2018-02-19T09:54:38.789Z,9.83
2018-02-19T09:57:06.340Z,9.40
2018-02-19T09:59:33.841Z,10.33
2018-02-19T10:02:02.120Z,10.20
2018-02-19T10:04:30.405Z,10.93
2018-02-19T10:06:58.709Z,10.20
2018-02-19T10:09:26.229Z,9.30
2018-02-19T10:11:53.743Z,9.47
2018-02-19T10:16:55.072Z,9.10
2018-02-19T10:19:23.472Z,9.20
2018-02-19T10:21:50.969Z,8.57
2018-02-19T10:24:18.515Z,9.27
2018-02-19T10:26:46.036Z,9.40
2018-02-19T10:29:13.550Z,9.20
2018-02-19T10:31:41.054Z,9.67
2018-02-19T10:34:08.594Z,10.00
2018-02-19T10:36:36.092Z,9.43
2018-02-19T10:39:04.378Z,9.50
2018-02-19T10:41:32.683Z,11.20
2018-02-19T10:44:00.196Z,12.03
2018-02-19T10:46:27.712Z,12.93
2018-02-19T10:48:55.306Z,19.57
2018-02-19T10:51:22.813Z,11.27
2018-02-19T10:53:51.090Z,8.17
2018-02-19T10:56:19.502Z,9.30
2018-02-19T10:58:47.017Z,10.20
2018-02-19T11:01:14.515Z,10.27
2018-02-19T11:03:42.048Z,9.63
2018-02-19T11:06:09.566Z,11.13
2018-02-19T11:08:37.065Z,9.87
2018-02-19T11:11:04.626Z,10.70
2018-02-19T11:13:32.145Z,9.43
2018-02-19T11:15:59.682Z,10.50
2018-02-19T11:18:28.006Z,10.50
2018-02-19T11:20:55.529Z,10.40
2018-02-19T11:23:23.050Z,10.27
2018-02-19T11:25:50.590Z,11.10
2018-02-19T11:28:18.104Z,13.83
2018-02-19T11:30:45.647Z,11.93
2018-02-19T11:33:13.193Z,11.50
2018-02-19T11:35:40.707Z,12.17
2018-02-19T11:38:08.981Z,15.03
2018-02-19T11:43:11.341Z,18.50
2018-02-19T11:45:38.874Z,15.17
2018-02-19T11:48:06.381Z,13.43
2018-02-19T11:50:33.902Z,12.17
2018-02-19T11:53:01.458Z,17.07
2018-02-19T11:55:28.992Z,11.77
2018-02-19T11:57:57.269Z,11.83
2018-02-19T12:00:25.583Z,11.40
2018-02-19T12:02:53.088Z,10.90
2018-02-19T12:05:20.592Z,10.17
2018-02-19T12:07:48.120Z,10.70
2018-02-19T12:10:15.620Z,10.63
2018-02-19T12:12:43.132Z,9.97
2018-02-19T12:15:10.659Z,10.07
2018-02-19T12:17:38.168Z,10.43
2018-02-19T12:20:05.679Z,10.30
2018-02-19T12:22:33.201Z,32.87
2018-02-19T12:25:01.518Z,57.73
2018-02-19T12:27:29.033Z,13.33
2018-02-19T12:29:56.665Z,9.50
2018-02-19T12:32:24.211Z,8.70
2018-02-19T12:34:51.730Z,8.30
2018-02-19T12:37:19.271Z,9.70
2018-02-19T12:39:46.785Z,8.53
2018-02-19T12:42:14.327Z,8.60
2018-02-19T12:44:41.869Z,8.50
2018-02-19T12:47:09.381Z,8.23
2018-02-19T12:49:37.685Z,9.07
2018-02-19T12:52:05.227Z,8.60
2018-02-19T12:54:32.759Z,9.03
2018-02-19T12:57:00.279Z,8.03
2018-02-19T12:59:27.838Z,8.50
2018-02-19T13:01:55.344Z,7.77
2018-02-19T13:04:22.869Z,7.33
2018-02-19T13:06:50.397Z,12.27
2018-02-19T13:09:18.692Z,8.07
2018-02-19T13:11:47.004Z,11.63
2018-02-19T13:14:14.553Z,13.03
2018-02-19T13:16:42.091Z,21.33
2018-02-19T13:19:10.409Z,36.97
2018-02-19T13:21:37.940Z,61.37
2018-02-19T13:24:05.488Z,42.83
2018-02-19T13:26:33.787Z,29.40
2018-02-19T13:29:01.338Z,35.07
2018-02-19T13:31:28.889Z,19.97
2018-02-19T13:33:56.563Z,77.57
2018-02-19T13:36:24.075Z,11.00
2018-02-19T13:38:51.598Z,15.13
2018-02-19T13:41:19.907Z,19.80
2018-02-19T13:43:47.426Z,9.43
2018-02-19T13:46:14.974Z,11.10
2018-02-19T13:48:42.528Z,9.53
2018-02-19T13:51:10.039Z,16.03
2018-02-19T13:53:38.338Z,9.70
2018-02-19T13:56:05.924Z,10.43
2018-02-19T13:58:33.470Z,9.10
2018-02-19T14:01:01.009Z,17.83
2018-02-19T14:03:28.539Z,10.23
2018-02-19T14:05:56.078Z,11.27
2018-02-19T14:08:23.585Z,9.30
2018-02-19T14:10:51.221Z,9.60
2018-02-19T14:13:18.734Z,9.20
2018-02-19T14:15:47.013Z,8.93
2018-02-19T14:18:15.321Z,11.63
2018-02-19T14:20:42.836Z,11.63
2018-02-19T14:23:10.448Z,13.83
2018-02-19T14:25:38.166Z,12.90
2018-02-19T14:28:05.689Z,9.57
2018-02-19T14:30:33.212Z,10.93
2018-02-19T14:33:01.590Z,8.37
2018-02-19T14:35:29.891Z,8.87
2018-02-19T14:37:57.502Z,10.30
2018-02-19T14:40:25.142Z,10.43
2018-02-19T14:42:52.686Z,10.07
2018-02-19T14:45:20.944Z,8.83
2018-02-19T14:47:49.256Z,9.33
2018-02-19T14:50:16.789Z,10.33
2018-02-19T14:52:45.138Z,11.20
2018-02-19T14:55:12.683Z,9.73
2018-02-19T14:57:40.201Z,11.67
2018-02-19T15:00:08.498Z,11.03
2018-02-19T15:02:36.284Z,10.23
2018-02-19T15:05:03.799Z,11.80
2018-02-19T15:07:31.314Z,13.07
2018-02-19T15:09:58.856Z,10.77
2018-02-19T15:12:26.414Z,12.53
2018-02-19T15:14:53.958Z,15.83
2018-02-19T15:17:22.282Z,13.57
2018-02-19T15:19:49.821Z,16.37
2018-02-19T15:22:17.358Z,11.70
2018-02-19T15:24:45.705Z,12.60
2018-02-19T15:27:13.238Z,13.70
2018-02-19T15:29:40.825Z,12.57
2018-02-19T15:32:08.443Z,14.80
2018-02-19T15:34:36.910Z,12.63
2018-02-19T15:37:04.477Z,12.17
2018-02-19T15:39:32.134Z,47.60
2018-02-19T15:41:59.680Z,17.07
2018-02-19T15:44:27.234Z,13.17
2018-02-19T15:46:54.838Z,14.37
2018-02-19T15:49:22.440Z,14.47
2018-02-19T15:51:49.981Z,13.50
2018-02-19T15:54:18.406Z,14.10
2018-02-19T15:56:45.967Z,11.33
2018-02-19T15:59:13.489Z,12.40
2018-02-19T16:01:41.815Z,12.77
2018-02-19T16:04:09.342Z,12.60
2018-02-19T16:06:36.872Z,12.90
2018-02-19T16:09:04.431Z,13.07
2018-02-19T16:11:31.993Z,13.90
2018-02-19T16:13:59.546Z,20.20
2018-02-19T16:16:27.218Z,20.70
2018-02-19T16:18:54.783Z,18.27
2018-02-19T16:21:22.366Z,19.27
2018-02-19T16:23:49.960Z,16.30
2018-02-19T16:26:18.249Z,16.77
2018-02-19T16:28:45.809Z,17.53
2018-02-19T16:31:13.396Z,16.77
2018-02-19T16:33:40.977Z,18.40
2018-02-19T16:36:08.514Z,21.00
2018-02-19T16:38:36.086Z,18.50
2018-02-19T16:41:03.637Z,18.80
2018-02-19T16:43:31.251Z,21.60
2018-02-19T16:45:58.771Z,21.97
2018-02-19T16:48:26.297Z,22.97
2018-02-19T16:50:54.660Z,22.83
2018-02-19T16:53:22.214Z,22.97
2018-02-19T16:55:49.742Z,25.97
2018-02-19T16:58:17.301Z,25.20
2018-02-19T17:00:44.952Z,24.80
2018-02-19T17:03:13.400Z,23.10
2018-02-19T17:05:41.722Z,22.27
2018-02-19T17:08:10.010Z,21.83
2018-02-19T17:10:37.540Z,21.70
2018-02-19T17:13:05.127Z,21.40
2018-02-19T17:15:33.405Z,22.67
2018-02-19T17:18:01.754Z,23.77
2018-02-19T17:20:29.264Z,20.03
2018-02-19T17:22:56.888Z,19.70
2018-02-19T17:25:24.490Z,20.40
2018-02-19T17:27:52.160Z,21.20
2018-02-19T17:30:19.721Z,22.70
2018-02-19T17:32:47.273Z,24.07
2018-02-19T17:35:16.380Z,25.27
2018-02-19T17:37:44.676Z,26.57
2018-02-19T17:40:12.214Z,26.57
2018-02-19T17:42:40.685Z,26.77
2018-02-19T17:45:09.077Z,27.23
2018-02-19T17:47:37.442Z,29.37
2018-02-19T17:50:04.986Z,30.03
2018-02-19T17:52:32.553Z,31.97
2018-02-19T17:55:00.128Z,30.73
2018-02-19T17:57:27.688Z,31.33
2018-02-19T17:59:55.367Z,30.70
2018-02-19T18:02:23.007Z,31.93
2018-02-19T18:04:50.541Z,31.83
2018-02-19T18:07:18.126Z,32.50
2018-02-19T18:09:45.674Z,30.90
2018-02-19T18:12:13.253Z,30.83
2018-02-19T18:14:40.812Z,30.67
2018-02-19T18:17:08.443Z,30.93
2018-02-19T18:19:36.828Z,30.73
2018-02-19T18:22:04.402Z,30.43
2018-02-19T18:24:32.012Z,31.10
2018-02-19T18:26:59.553Z,29.40
2018-02-19T18:29:27.132Z,30.80
2018-02-19T18:31:54.684Z,30.67
2018-02-19T18:34:22.254Z,32.53
2018-02-19T18:36:49.836Z,35.43
2018-02-19T18:39:17.418Z,29.93
2018-02-19T18:41:44.978Z,31.80
2018-02-19T18:44:12.545Z,31.93
2018-02-19T18:46:40.077Z,30.83
2018-02-19T18:49:07.629Z,31.37
2018-02-19T18:51:35.309Z,31.80
2018-02-19T18:54:02.883Z,32.80
2018-02-19T18:56:30.487Z,32.33
2018-02-19T18:58:58.066Z,33.43
2018-02-19T19:01:25.606Z,36.40
2018-02-19T19:03:53.259Z,33.77
2018-02-19T19:06:20.902Z,33.47
2018-02-19T19:09:00.463Z,33.67
2018-02-19T19:11:28.954Z,33.63
2018-02-19T19:13:56.487Z,33.70
2018-02-19T19:16:24.068Z,36.23
2018-02-19T19:18:51.637Z,36.00
2018-02-19T19:21:19.232Z,34.53
2018-02-19T19:23:47.567Z,38.53
2018-02-19T19:26:15.157Z,36.33
2018-02-19T19:28:43.317Z,35.83
2018-02-19T19:31:10.861Z,37.90
2018-02-19T19:33:38.445Z,36.23
2018-02-19T19:36:05.977Z,35.43
2018-02-19T19:38:33.556Z,36.90
2018-02-19T19:41:01.199Z,37.63
2018-02-19T19:43:28.764Z,35.83
2018-02-19T19:45:56.396Z,38.97
2018-02-19T19:48:24.748Z,39.83
2018-02-19T19:50:53.076Z,40.60
2018-02-19T19:53:21.378Z,41.50
2018-02-19T19:55:48.973Z,38.70
2018-02-19T19:58:16.502Z,38.70
2018-02-19T20:00:44.207Z,38.30
2018-02-19T20:03:11.805Z,39.10
2018-02-19T20:05:40.138Z,39.40
2018-02-19T20:08:07.677Z,38.67
2018-02-19T20:10:35.222Z,39.63
2018-02-19T20:13:03.515Z,41.10
2018-02-19T20:15:31.052Z,39.33
2018-02-19T20:17:58.691Z,41.23
2018-02-19T20:20:26.233Z,40.67
2018-02-19T20:22:53.763Z,41.17
2018-02-19T20:25:21.333Z,43.97
2018-02-19T20:27:48.841Z,42.10
2018-02-19T20:30:16.472Z,43.63
2018-02-19T20:32:44.032Z,44.33
2018-02-19T20:35:11.677Z,42.17
2018-02-19T20:37:39.235Z,41.20
2018-02-19T20:40:06.808Z,42.43
2018-02-19T20:42:35.116Z,43.60
2018-02-19T20:45:02.638Z,44.57
2018-02-19T20:47:30.266Z,45.23
2018-02-19T20:49:57.795Z,46.87
2018-02-19T20:52:25.413Z,45.17
2018-02-19T20:54:52.998Z,44.70
2018-02-19T20:57:21.476Z,46.47
2018-02-19T20:59:49.081Z,48.27
2018-02-19T21:02:16.703Z,47.43
2018-02-19T21:04:44.348Z,51.27
2018-02-19T21:07:11.937Z,49.47
2018-02-19T21:09:39.482Z,50.20
2018-02-19T21:12:07.128Z,50.30
2018-02-19T21:14:34.665Z,50.13
2018-02-19T21:17:02.244Z,49.73
2018-02-19T21:19:29.776Z,49.17
2018-02-19T21:21:58.089Z,49.07
2018-02-19T21:24:25.664Z,48.70
2018-02-19T21:26:53.193Z,46.60
2018-02-19T21:29:21.568Z,48.70
2018-02-19T21:31:49.222Z,48.17
2018-02-19T21:34:16.837Z,48.40
2018-02-19T21:36:44.364Z,47.23
2018-02-19T21:39:12.711Z,45.70
2018-02-19T21:41:40.276Z,45.00
2018-02-19T21:44:07.818Z,45.30
2018-02-19T21:46:35.381Z,45.97
2018-02-19T21:49:03.040Z,45.50
2018-02-19T21:51:30.642Z,46.03
2018-02-19T21:53:58.311Z,46.03
2018-02-19T21:56:25.898Z,45.17
2018-02-19T21:58:53.437Z,45.47
2018-02-19T22:01:21.062Z,45.57
2018-02-19T22:03:48.584Z,43.77
2018-02-19T22:06:16.871Z,46.60
2018-02-19T22:08:45.205Z,45.73
2018-02-19T22:11:12.784Z,48.13
2018-02-19T22:13:40.336Z,50.30
2018-02-19T22:16:07.906Z,51.40
2018-02-19T22:18:35.438Z,52.77
2018-02-19T22:21:02.975Z,55.77
2018-02-19T22:23:30.559Z,53.50
2018-02-19T22:25:58.092Z,53.77
2018-02-19T22:28:25.704Z,51.90
2018-02-19T22:30:53.992Z,52.07
2018-02-19T22:33:21.540Z,52.30
2018-02-19T22:35:49.101Z,53.63
2018-02-19T22:38:16.650Z,53.37
2018-02-19T22:40:45.060Z,52.67
2018-02-19T22:43:12.589Z,52.77
2018-02-19T22:45:40.166Z,53.93
2018-02-19T22:48:07.737Z,52.77
2018-02-19T22:50:35.367Z,55.53
2018-02-19T22:53:02.920Z,53.73
2018-02-19T22:55:30.447Z,53.10
2018-02-19T22:57:57.971Z,52.80
2018-02-19T23:00:25.568Z,54.17
2018-02-19T23:02:53.173Z,55.70
2018-02-19T23:05:20.702Z,56.60
2018-02-19T23:07:48.300Z,56.97
2018-02-19T23:10:15.843Z,57.90
2018-02-19T23:12:43.358Z,59.63
2018-02-19T23:15:11.764Z,55.90
2018-02-19T23:17:39.276Z,59.83
2018-02-19T23:20:06.852Z,57.63
2018-02-19T23:22:34.397Z,58.13
2018-02-19T23:25:01.920Z,55.93
2018-02-19T23:27:29.436Z,52.70
2018-02-19T23:29:56.994Z,50.43
2018-02-19T23:32:24.523Z,48.30
2018-02-19T23:34:52.036Z,47.13
2018-02-19T23:37:20.368Z,44.87
2018-02-19T23:39:47.907Z,43.87
2018-02-19T23:42:15.454Z,46.60
2018-02-19T23:44:42.985Z,47.93
2018-02-19T23:47:10.498Z,48.43
2018-02-19T23:49:38.027Z,49.77
2018-02-19T23:52:05.662Z,47.07
2018-02-19T23:54:34.997Z,48.13
2018-02-19T23:57:03.308Z,48.87
2018-02-19T23:59:30.821Z,49.93
